Aérodrome :
LOGIN :

S'inscrire | Disclaimer

   EN    FR    IT 

 










Légende :    VFR   VFR Marginal   IFR   IFR Intensif   IFR Très Intensif
Visi : 
Plafond : 
>= 8 km
>= 3000ft
5 à 8 km
1000 à 3000 ft
1500m à 5 km
500 à 1000 ft
800 à 1500m
200 à 500 ft
< 800m
< 200 ft
Symboles :   Orages  Brouillard  Fortes neiges  Fortes précipitations  Vent > 20 kt
SIGMETs :   Divers  Orages  Givrage  Turbulence  Onde Orograph.  Cendres Volcan.







- Altitude de l'aérodrome : 59 ft
- Code IATA : TSF


LIPH - Treviso

DERNIER METAR :
  • 271320Z 24006KT 190V280 CAVOK 28/12 Q1019

METARs EXPIRÉS :
  • 271250Z VRB05KT CAVOK 28/13 Q1019
  • 271220Z 16005KT 100V200 CAVOK 27/13 Q1019
  • 271150Z 21005KT 150V270 9999 FEW050 27/12 Q1019
  • 271120Z 24005KT 150V300 CAVOK 27/11 Q1020
  • 271050Z VRB06KT CAVOK 27/13 Q1020

TAF TAF LIPH
Valide du 27 à 12h jusqu'au 28 à 12h UTC


271100Z 2712/2812 VRB06KT 9999 FEW050
Pas de NOTAMs connus pour ce terrain.



MET'MAP, la Météo Aéronautique d'un coup d'oeil ! - Copyright ORBIFLY Décembre 2007 - Disclaimer

ORBIFLY MET'MAP TEAM :

Programmation & Développement : Alexandra Zaïnal
Conception & Développement : Baudouin d'Aumeries
Co-Programmation & Développement : Marc-Olivier Méhu
Soutien technique & logistique : Manuel Goepfert

Contact : metmap@orbifly.com




SOURCES & CREDITS :

   NOAA